Time;durP1;ratioP1;P1;durP2;ratioP2;P2;SDS_P1;SDS_P2;PMS_P1;PMS_P2;Temp;Humidity;BMP_temperature;BMP_pressure;BME280_temperature;BME280_humidity;BME280_pressure;Samples;Min_cycle;Max_cycle;Signal;HPM_P1;HPM_P2
2023/07/18 00:01:56;;;;;;;14.10;5.43;;;;;;;32.19;31.98;101195.63;4923466;28;20058;-80
2023/07/18 00:04:30;;;;;;;20.05;6.53;;;;;;;32.14;32.41;101199.19;4920527;28;20525;-80
2023/07/18 00:06:57;;;;;;;16.45;5.40;;;;;;;32.08;32.01;101202.97;4942778;28;20513;-80
2023/07/18 00:09:24;;;;;;;14.88;5.80;;;;;;;31.78;32.61;101145.13;4966047;28;20551;-80
2023/07/18 00:11:51;;;;;;;10.82;5.13;;;;;;;31.95;33.82;101178.75;4944918;28;20046;-80
2023/07/18 00:14:18;;;;;;;11.90;4.55;;;;;;;32.08;33.34;101183.75;4946616;28;20267;-80
2023/07/18 00:16:49;;;;;;;12.85;5.00;;;;;;;31.93;32.20;101175.41;4927854;28;20136;-80
2023/07/18 00:19:20;;;;;;;19.70;6.22;;;;;;;31.93;32.28;101186.38;4954695;28;20626;-80
2023/07/18 00:21:50;;;;;;;15.80;5.55;;;;;;;31.92;32.85;101185.56;4952717;28;20076;-79
2023/07/18 00:24:16;;;;;;;19.65;5.68;;;;;;;31.84;32.42;101171.50;4951844;28;20045;-78
2023/07/18 00:26:43;;;;;;;15.50;6.25;;;;;;;31.81;32.63;101172.03;4905351;28;20057;-80
2023/07/18 00:29:10;;;;;;;15.98;6.65;;;;;;;31.58;32.86;101148.53;4943651;28;20469;-80
2023/07/18 00:31:37;;;;;;;13.98;5.57;;;;;;;31.80;32.83;101181.34;4938085;28;20426;-80
2023/07/18 00:34:06;;;;;;;19.65;5.40;;;;;;;31.71;32.62;101173.63;4928930;28;20061;-80
2023/07/18 00:36:38;;;;;;;16.35;5.70;;;;;;;31.73;32.66;101176.09;4915829;28;20058;-81
2023/07/18 00:39:13;;;;;;;20.58;6.05;;;;;;;31.76;32.65;101185.72;4943519;28;20051;-81
2023/07/18 00:41:42;;;;;;;13.90;5.55;;;;;;;31.60;32.38;101160.09;4926181;28;20137;-79
2023/07/18 00:44:15;;;;;;;16.77;5.55;;;;;;;31.20;33.86;101093.66;4911047;28;20251;-80
2023/07/18 00:46:42;;;;;;;13.45;5.25;;;;;;;31.70;33.54;101176.63;4917198;28;20321;-79
2023/07/18 00:49:09;;;;;;;17.20;5.88;;;;;;;31.75;33.33;101184.06;4979641;28;20609;-81
2023/07/18 00:51:37;;;;;;;11.30;5.40;;;;;;;31.25;33.32;101120.28;4966553;28;20049;-80
2023/07/18 00:54:04;;;;;;;15.23;5.40;;;;;;;31.63;34.08;101190.59;4986082;28;20058;-81
2023/07/18 00:56:33;;;;;;;15.52;5.55;;;;;;;31.60;33.34;101188.34;4963576;28;20046;-80
2023/07/18 00:59:08;;;;;;;14.68;5.40;;;;;;;31.30;34.33;101145.03;4938682;28;20502;-80
2023/07/18 01:01:35;;;;;;;20.60;6.47;;;;;;;31.59;34.13;101197.69;4930569;28;20482;-79
2023/07/18 01:04:02;;;;;;;30.35;7.40;;;;;;;31.15;33.90;101126.53;4962547;28;20726;-80
2023/07/18 01:06:32;;;;;;;18.75;6.50;;;;;;;31.51;33.87;101193.50;4953781;28;20077;-82
2023/07/18 01:09:02;;;;;;;19.87;5.87;;;;;;;31.33;34.37;101171.09;4963887;28;20084;-81
2023/07/18 01:11:33;;;;;;;12.95;6.93;;;;;;;31.14;34.17;101146.78;4950421;28;20411;-79
2023/07/18 01:14:00;;;;;;;15.52;5.88;;;;;;;31.41;34.21;101209.03;4916740;28;20054;-81
2023/07/18 01:16:27;;;;;;;17.63;6.07;;;;;;;31.17;34.20;101179.19;4957200;28;20057;-80
2023/07/18 01:18:54;;;;;;;20.55;6.32;;;;;;;31.19;34.77;101179.78;4954280;28;20054;-80
2023/07/18 01:21:22;;;;;;;13.57;5.50;;;;;;;31.27;33.96;101179.28;4944309;28;20049;-79
2023/07/18 01:23:50;;;;;;;20.30;6.28;;;;;;;31.24;34.17;101189.94;4964331;28;20420;-78
2023/07/18 01:26:17;;;;;;;22.95;5.57;;;;;;;31.29;34.77;101207.28;4943291;28;20060;-79
2023/07/18 01:28:44;;;;;;;12.23;6.18;;;;;;;30.78;34.40;101134.63;4955389;28;20171;-79
2023/07/18 01:31:12;;;;;;;12.38;5.85;;;;;;;31.24;34.68;101211.88;4956189;28;20341;-80
2023/07/18 01:33:42;;;;;;;16.85;5.32;;;;;;;31.17;34.51;101194.81;4960627;28;20521;-80
2023/07/18 01:36:09;;;;;;;14.13;6.15;;;;;;;31.19;35.12;101215.41;4951742;28;20391;-80
2023/07/18 01:38:39;;;;;;;16.75;6.57;;;;;;;31.14;34.90;101207.13;4947618;28;20056;-80
2023/07/18 01:41:07;;;;;;;16.13;6.63;;;;;;;30.85;34.83;101180.00;4934870;28;20589;-80
2023/07/18 01:43:34;;;;;;;13.10;5.85;;;;;;;31.00;35.00;101211.38;4916297;28;20080;-79
2023/07/18 01:46:01;;;;;;;18.58;5.93;;;;;;;30.96;35.59;101215.72;4918255;28;20445;-80
2023/07/18 01:48:28;;;;;;;21.50;6.63;;;;;;;30.84;35.77;101205.72;4934063;28;20054;-79
2023/07/18 01:50:56;;;;;;;14.57;5.93;;;;;;;30.72;36.09;101201.44;4982485;28;20473;-79
2023/07/18 01:53:26;;;;;;;18.90;6.85;;;;;;;30.76;37.74;101217.13;4969908;28;20066;-80
2023/07/18 01:55:54;;;;;;;12.32;5.70;;;;;;;30.40;36.38;101152.84;4981967;28;20137;-79
2023/07/18 01:58:23;;;;;;;13.02;5.68;;;;;;;30.77;36.17;101213.28;4944688;28;20050;-79
2023/07/18 02:00:53;;;;;;;15.32;7.00;;;;;;;30.71;36.62;101208.00;4936130;28;20054;-81
2023/07/18 02:03:22;;;;;;;18.40;6.70;;;;;;;30.04;36.52;101109.38;4936385;28;20055;-78
2023/07/18 02:05:49;;;;;;;15.15;6.57;;;;;;;30.65;36.56;101210.69;4936232;28;20476;-79
2023/07/18 02:08:16;;;;;;;18.90;6.18;;;;;;;30.54;37.22;101200.69;4949996;28;20104;-80
2023/07/18 02:10:43;;;;;;;13.13;7.05;;;;;;;30.58;36.56;101220.19;4955972;28;20307;-79
2023/07/18 02:13:14;;;;;;;20.48;6.55;;;;;;;30.44;37.29;101204.13;4962132;28;20051;-80
2023/07/18 02:15:45;;;;;;;17.02;6.28;;;;;;;30.59;38.14;101213.63;4917936;28;20137;-79
2023/07/18 02:18:12;;;;;;;21.98;7.75;;;;;;;30.62;37.07;101215.84;4929966;28;20073;-81
2023/07/18 02:20:40;;;;;;;12.18;7.13;;;;;;;30.43;36.89;101185.22;4952003;28;20046;-79
2023/07/18 02:23:12;;;;;;;12.48;6.93;;;;;;;30.41;37.64;101201.06;4972123;28;20364;-80
2023/07/18 02:25:46;;;;;;;17.73;6.50;;;;;;;30.24;36.95;101184.66;4947601;28;20066;-78
2023/07/18 02:28:17;;;;;;;17.48;6.80;;;;;;;30.54;37.08;101219.06;4930102;28;20160;-80
2023/07/18 02:30:52;;;;;;;15.63;6.63;;;;;;;30.35;37.61;101197.44;4939889;28;20112;-80
2023/07/18 02:33:23;;;;;;;17.17;6.55;;;;;;;30.31;37.35;101192.72;4960537;28;20430;-80
2023/07/18 02:35:59;;;;;;;13.02;6.05;;;;;;;30.40;37.72;101233.09;4948581;28;20280;-80
2023/07/18 02:38:34;;;;;;;21.08;7.18;;;;;;;30.33;37.95;101231.63;4949129;28;20308;-80
2023/07/18 02:41:11;;;;;;;13.27;6.47;;;;;;;30.32;38.01;101239.03;4927937;28;20333;-80
2023/07/18 02:43:50;;;;;;;15.25;6.45;;;;;;;30.03;38.09;101200.00;4906472;28;20051;-80
2023/07/18 02:46:23;;;;;;;15.85;6.45;;;;;;;29.90;38.40;101197.59;4886843;28;20569;-80
2023/07/18 02:48:54;;;;;;;20.13;7.45;;;;;;;29.91;38.34;101213.78;4926057;28;20525;-79
2023/07/18 02:51:21;;;;;;;16.50;7.32;;;;;;;30.01;38.64;101238.56;4917986;28;20111;-80
2023/07/18 02:53:50;;;;;;;17.40;6.63;;;;;;;29.89;38.61;101223.31;4940178;28;20096;-80
2023/07/18 02:56:19;;;;;;;19.08;7.65;;;;;;;29.21;38.71;101129.47;4933746;28;20054;-80
2023/07/18 02:58:49;;;;;;;21.20;6.82;;;;;;;29.80;38.78;101242.06;4932189;28;20134;-79
2023/07/18 03:01:19;;;;;;;12.70;5.95;;;;;;;28.93;38.75;101117.47;4904881;28;20980;-79
2023/07/18 03:03:48;;;;;;;16.92;6.40;;;;;;;29.24;39.15;101167.25;4921089;28;20158;-78
2023/07/18 03:06:16;;;;;;;16.52;7.20;;;;;;;29.73;39.25;101260.53;4923482;28;20536;-80
2023/07/18 03:08:43;;;;;;;11.80;6.57;;;;;;;29.70;39.79;101269.25;4928355;28;20100;-80
2023/07/18 03:11:10;;;;;;;20.23;6.70;;;;;;;29.60;39.24;101262.50;4931949;28;20081;-79
2023/07/18 03:13:36;;;;;;;19.92;6.97;;;;;;;29.68;39.38;101271.41;4930616;28;20060;-79
2023/07/18 03:16:04;;;;;;;12.13;6.60;;;;;;;29.44;39.37;101226.91;4924121;28;20546;-80
2023/07/18 03:18:32;;;;;;;16.08;6.50;;;;;;;29.60;39.59;101267.97;4929128;28;20409;-79
2023/07/18 03:20:59;;;;;;;20.33;6.70;;;;;;;29.53;39.71;101255.53;4943870;28;20068;-79
2023/07/18 03:23:26;;;;;;;19.77;7.35;;;;;;;29.59;39.93;101258.09;4928720;28;20109;-79
2023/07/18 03:25:54;;;;;;;13.10;6.75;;;;;;;29.40;39.93;101243.81;4946143;28;20045;-79
2023/07/18 03:28:23;;;;;;;23.50;8.15;;;;;;;28.98;39.70;101174.94;4920283;28;20042;-80
2023/07/18 03:30:50;;;;;;;11.23;7.50;;;;;;;29.24;39.90;101216.44;4939742;28;20049;-79
2023/07/18 03:33:21;;;;;;;15.05;7.05;;;;;;;29.60;39.90;101278.91;4938116;28;20229;-81
2023/07/18 03:35:54;;;;;;;11.13;5.75;;;;;;;29.54;40.28;101255.28;4940615;28;20524;-81
2023/07/18 03:38:21;;;;;;;11.55;7.03;;;;;;;29.77;40.16;101283.59;4918144;28;20104;-79
2023/07/18 03:40:47;;;;;;;13.93;6.97;;;;;;;29.54;39.75;101235.28;4930853;28;20054;-80
2023/07/18 03:43:14;;;;;;;13.05;6.32;;;;;;;29.87;39.59;101281.03;4921468;28;20236;-80
2023/07/18 03:45:41;;;;;;;18.05;7.97;;;;;;;29.52;40.24;101208.19;4897411;28;20046;-79
2023/07/18 03:48:08;;;;;;;11.90;6.40;;;;;;;29.77;39.85;101246.13;4956455;28;20290;-81
2023/07/18 03:50:39;;;;;;;13.85;6.60;;;;;;;29.93;39.96;101285.53;4939256;28;20288;-81
2023/07/18 03:53:10;;;;;;;16.70;7.57;;;;;;;29.89;40.20;101284.34;4956377;28;20278;-81
2023/07/18 03:55:39;;;;;;;16.42;7.07;;;;;;;29.64;40.76;101251.91;4957841;28;20830;-79
2023/07/18 03:58:06;;;;;;;22.90;8.43;;;;;;;29.63;40.64;101246.66;4937903;28;20349;-79
2023/07/18 04:00:36;;;;;;;15.65;6.90;;;;;;;29.72;40.75;101267.09;4931470;28;20529;-80
2023/07/18 04:03:04;;;;;;;17.30;7.70;;;;;;;29.76;40.75;101281.91;4933480;28;20063;-80
2023/07/18 04:05:31;;;;;;;22.50;7.78;;;;;;;29.76;41.01;101287.41;4924197;28;20057;-79
2023/07/18 04:07:58;;;;;;;17.80;7.32;;;;;;;29.71;41.37;101281.84;4918120;28;20808;-78
2023/07/18 04:10:24;;;;;;;14.98;7.20;;;;;;;29.62;41.74;101273.19;4962075;28;20204;-80
2023/07/18 04:12:54;;;;;;;16.13;7.35;;;;;;;29.02;42.00;101186.22;4958359;28;20406;-78
2023/07/18 04:15:22;;;;;;;19.50;7.35;;;;;;;29.50;42.22;101262.31;4910829;28;20070;-79
2023/07/18 04:17:49;;;;;;;16.52;7.10;;;;;;;29.39;42.60;101238.59;4935715;28;20472;-79
2023/07/18 04:20:19;;;;;;;17.02;7.55;;;;;;;29.58;42.91;101272.84;4928047;28;20121;-80
2023/07/18 04:22:50;;;;;;;25.13;8.50;;;;;;;29.65;43.19;101289.09;4933721;28;20047;-80
2023/07/18 04:25:17;;;;;;;20.00;8.67;;;;;;;29.39;43.45;101252.25;4949563;28;20294;-80
2023/07/18 04:27:47;;;;;;;18.08;7.95;;;;;;;29.60;43.63;101286.28;4946576;28;20298;-80
2023/07/18 04:30:14;;;;;;;17.58;8.23;;;;;;;29.57;43.85;101279.41;4931708;28;20072;-80
2023/07/18 04:32:42;;;;;;;17.25;8.10;;;;;;;29.66;43.98;101292.66;4962387;28;20116;-80
2023/07/18 04:35:09;;;;;;;16.70;9.05;;;;;;;29.67;44.20;101280.69;4951015;28;20043;-81
2023/07/18 04:37:39;;;;;;;18.20;7.72;;;;;;;29.74;44.82;101275.91;4944782;28;20516;-81
2023/07/18 04:40:08;;;;;;;13.75;7.22;;;;;;;29.81;44.15;101262.88;4949967;28;20042;-78
2023/07/18 04:42:37;;;;;;;14.63;8.23;;;;;;;29.27;43.86;101166.75;4951212;28;20043;-79
2023/07/18 04:45:08;;;;;;;20.20;9.00;;;;;;;29.52;44.46;101205.47;4945841;28;20554;-78
2023/07/18 04:47:40;;;;;;;23.65;9.20;;;;;;;29.80;44.67;101270.22;4952155;28;20042;-79
2023/07/18 04:50:10;;;;;;;16.05;8.23;;;;;;;29.68;44.45;101252.25;4961637;28;20259;-79
2023/07/18 04:52:37;;;;;;;15.65;8.02;;;;;;;29.74;44.92;101276.72;4967773;28;20046;-78
2023/07/18 04:55:08;;;;;;;16.85;8.35;;;;;;;29.88;45.18;101288.19;4947148;28;20128;-77
2023/07/18 04:57:36;;;;;;;17.80;8.98;;;;;;;29.77;45.34;101297.28;4958000;28;20046;-78
2023/07/18 05:00:05;;;;;;;18.05;8.68;;;;;;;29.61;46.09;101250.50;4937165;28;20499;-78
2023/07/18 05:02:32;;;;;;;24.45;10.95;;;;;;;29.61;45.68;101239.53;4950512;28;20076;-76
2023/07/18 05:05:01;;;;;;;20.95;9.15;;;;;;;29.96;45.67;101317.03;4950706;28;20471;-79
2023/07/18 05:07:28;;;;;;;16.17;8.63;;;;;;;29.45;45.66;101232.16;4931465;28;20146;-81
2023/07/18 05:09:59;;;;;;;22.10;8.25;;;;;;;30.04;46.50;101303.75;4945312;28;20566;-81
2023/07/18 05:12:26;;;;;;;14.43;9.52;;;;;;;29.79;45.71;101275.97;4937005;28;20051;-80
2023/07/18 05:14:57;;;;;;;14.77;9.18;;;;;;;30.00;45.69;101319.03;4957373;28;20096;-80
2023/07/18 05:17:31;;;;;;;19.17;9.45;;;;;;;30.01;45.26;101307.00;4938102;28;20256;-81
2023/07/18 05:20:07;;;;;;;18.13;9.20;;;;;;;29.75;45.19;101261.13;4928541;28;20069;-80
2023/07/18 05:22:43;;;;;;;18.02;8.80;;;;;;;30.12;45.42;101307.97;4909164;29;20686;-78
2023/07/18 05:25:13;;;;;;;19.13;8.77;;;;;;;29.98;45.60;101277.38;4942078;28;20046;-80
2023/07/18 05:27:40;;;;;;;22.10;9.90;;;;;;;30.11;45.60;101297.28;4950811;28;20546;-79
2023/07/18 05:30:21;;;;;;;18.60;9.18;;;;;;;30.28;45.80;101311.81;4949783;28;20491;-79
2023/07/18 05:32:54;;;;;;;19.65;9.18;;;;;;;30.19;46.43;101305.06;4959964;28;20042;-78
2023/07/18 05:35:21;;;;;;;23.75;10.45;;;;;;;30.39;46.10;101321.84;4932603;28;20066;-79
2023/07/18 05:37:48;;;;;;;27.40;10.77;;;;;;;30.11;46.28;101280.84;4963018;28;20050;-79
2023/07/18 05:40:21;;;;;;;23.70;11.00;;;;;;;30.07;45.86;101268.75;4933042;28;20053;-80
2023/07/18 05:42:48;;;;;;;20.70;10.20;;;;;;;30.38;46.37;101327.56;4954339;28;20457;-79
2023/07/18 05:45:15;;;;;;;30.02;10.82;;;;;;;30.03;46.70;101271.97;4962682;28;20058;-79
2023/07/18 05:47:42;;;;;;;19.52;10.05;;;;;;;30.26;46.32;101294.81;4961702;28;20362;-80
2023/07/18 05:50:09;;;;;;;28.17;10.40;;;;;;;30.27;46.30;101290.16;4953643;28;20057;-79
2023/07/18 05:52:36;;;;;;;25.25;10.30;;;;;;;30.53;46.19;101321.47;4951422;28;20085;-79
2023/07/18 05:55:06;;;;;;;19.00;10.50;;;;;;;30.51;46.33;101320.91;4954705;28;20058;-81
2023/07/18 05:57:33;;;;;;;26.52;12.45;;;;;;;30.60;46.88;101319.38;4952354;28;20046;-79
2023/07/18 06:00:06;;;;;;;17.77;11.02;;;;;;;30.42;46.74;101298.59;4926085;28;20109;-79
2023/07/18 06:02:34;;;;;;;21.40;11.27;;;;;;;30.54;46.54;101313.03;4958723;28;20066;-81
2023/07/18 06:05:04;;;;;;;19.23;10.70;;;;;;;30.53;46.84;101338.75;4941953;28;20089;-80
2023/07/18 06:07:31;;;;;;;21.00;10.43;;;;;;;30.28;47.13;101309.06;4965651;28;20553;-80
2023/07/18 06:09:58;;;;;;;21.85;11.57;;;;;;;30.66;47.09;101341.13;4938712;28;20163;-81
2023/07/18 06:12:25;;;;;;;19.70;10.65;;;;;;;29.73;46.90;101186.66;4952500;28;20303;-80
2023/07/18 06:14:54;;;;;;;18.30;10.88;;;;;;;30.66;47.24;101340.31;4948053;28;20109;-81
2023/07/18 06:17:25;;;;;;;29.05;11.48;;;;;;;30.70;47.33;101313.22;4943645;28;20101;-80
2023/07/18 06:19:56;;;;;;;22.23;11.35;;;;;;;30.71;47.48;101334.91;4959197;28;20050;-81
2023/07/18 06:22:23;;;;;;;20.38;11.40;;;;;;;30.48;47.88;101303.06;4962167;28;20469;-79
2023/07/18 06:24:50;;;;;;;25.50;11.73;;;;;;;30.70;48.00;101335.97;4959354;28;20483;-79
2023/07/18 06:27:16;;;;;;;26.40;11.55;;;;;;;30.81;48.07;101343.25;4966832;28;20509;-80
2023/07/18 06:29:44;;;;;;;19.88;10.73;;;;;;;30.80;47.97;101322.41;4951652;28;20047;-79
2023/07/18 06:32:13;;;;;;;31.20;12.82;;;;;;;30.77;48.52;101328.38;4950006;28;20186;-79
2023/07/18 06:34:40;;;;;;;22.30;11.95;;;;;;;30.83;48.43;101341.13;4957747;28;20550;-80
2023/07/18 06:37:08;;;;;;;27.08;12.52;;;;;;;30.86;48.34;101337.88;4959706;28;20366;-80
2023/07/18 06:39:37;;;;;;;20.58;11.23;;;;;;;30.85;48.47;101325.25;4969937;28;20054;-79
2023/07/18 06:42:09;;;;;;;24.45;12.07;;;;;;;30.89;48.43;101320.09;4932157;28;20055;-80
2023/07/18 06:44:39;;;;;;;25.55;12.98;;;;;;;30.97;48.57;101329.75;4935663;28;20124;-80
2023/07/18 06:47:06;;;;;;;28.27;13.18;;;;;;;31.14;48.76;101338.75;4978746;28;20050;-80
2023/07/18 06:49:35;;;;;;;21.55;12.40;;;;;;;31.03;48.86;101331.50;4961723;28;20445;-80
2023/07/18 06:52:02;;;;;;;27.52;14.48;;;;;;;31.07;48.86;101322.50;4955029;28;20141;-80
2023/07/18 06:54:33;;;;;;;29.45;13.48;;;;;;;31.18;48.51;101339.91;4944581;28;20506;-81
2023/07/18 06:57:09;;;;;;;22.33;11.98;;;;;;;31.16;48.46;101331.09;4944413;28;20368;-79
2023/07/18 06:59:36;;;;;;;20.80;12.45;;;;;;;30.92;48.98;101316.00;4933290;28;20145;-79
2023/07/18 07:02:03;;;;;;;25.27;12.13;;;;;;;31.14;48.57;101344.22;4954860;28;20132;-78
2023/07/18 07:04:29;;;;;;;17.70;12.18;;;;;;;30.99;48.53;101327.59;4964531;28;20049;-80
2023/07/18 07:06:56;;;;;;;32.22;14.63;;;;;;;31.09;49.25;101333.19;4953423;28;20053;-78
2023/07/18 07:09:25;;;;;;;29.08;13.93;;;;;;;31.23;49.78;101353.66;4934592;28;20072;-79
2023/07/18 07:11:59;;;;;;;24.00;12.23;;;;;;;31.20;49.87;101362.41;4966913;28;20056;-79
2023/07/18 07:14:35;;;;;;;22.35;13.48;;;;;;;31.06;50.01;101337.28;4922929;28;20245;-79
2023/07/18 07:17:04;;;;;;;23.85;14.15;;;;;;;31.08;50.57;101348.00;4974029;28;20049;-78
2023/07/18 07:19:31;;;;;;;32.20;15.68;;;;;;;31.24;49.76;101355.34;4967532;28;20335;-79
2023/07/18 07:22:02;;;;;;;27.38;13.60;;;;;;;31.05;50.87;101354.00;4946370;28;20051;-78
2023/07/18 07:24:32;;;;;;;31.75;15.90;;;;;;;31.21;50.15;101360.50;4978101;28;20057;-79
2023/07/18 07:26:59;;;;;;;27.77;13.23;;;;;;;31.08;50.50;101357.06;4960125;28;20053;-80
2023/07/18 07:29:26;;;;;;;21.30;14.05;;;;;;;31.09;50.47;101344.16;4961634;28;20121;-78
2023/07/18 07:31:53;;;;;;;30.17;13.07;;;;;;;31.23;50.01;101352.84;4949934;28;20475;-79
2023/07/18 07:34:20;;;;;;;25.65;14.43;;;;;;;31.34;50.50;101362.00;4948830;28;20155;-79
2023/07/18 07:36:50;;;;;;;30.25;15.07;;;;;;;31.32;50.44;101353.22;4956796;28;20050;-79
2023/07/18 07:39:17;;;;;;;26.67;14.90;;;;;;;31.40;50.97;101366.50;4921640;28;20117;-79
2023/07/18 07:41:44;;;;;;;25.40;15.57;;;;;;;31.28;51.06;101359.22;4922112;28;20096;-78
2023/07/18 07:44:11;;;;;;;27.10;14.50;;;;;;;31.38;51.04;101360.41;4911271;28;20054;-79
2023/07/18 07:46:38;;;;;;;27.33;12.82;;;;;;;31.19;50.72;101340.72;4937415;28;20043;-78
2023/07/18 07:49:05;;;;;;;34.30;15.70;;;;;;;31.43;50.82;101369.56;4934074;28;20050;-80
2023/07/18 07:51:33;;;;;;;36.40;14.00;;;;;;;31.46;51.21;101376.47;4925663;28;20038;-79
2023/07/18 07:54:01;;;;;;;28.92;15.15;;;;;;;31.47;51.66;101361.66;4933704;28;20050;-78
2023/07/18 07:56:27;;;;;;;32.78;16.17;;;;;;;31.62;50.87;101360.97;4915696;28;20057;-81
2023/07/18 07:58:54;;;;;;;26.30;15.02;;;;;;;31.32;51.08;101328.53;4909096;28;20046;-79
2023/07/18 08:01:38;;;;;;;31.08;16.52;;;;;;;31.28;51.48;101303.53;4938564;28;20482;-81
2023/07/18 08:04:09;;;;;;;31.35;16.10;;;;;;;31.52;51.94;101345.25;4937471;28;20057;-79
2023/07/18 08:06:39;;;;;;;27.80;15.45;;;;;;;31.64;51.29;101331.38;4932278;28;20045;-79
2023/07/18 08:09:06;;;;;;;25.08;14.95;;;;;;;31.72;52.02;101356.41;4928436;28;20133;-79
2023/07/18 08:11:41;;;;;;;29.38;18.45;;;;;;;31.71;52.52;101368.50;4937585;28;20060;-79
2023/07/18 08:14:11;;;;;;;38.30;20.17;;;;;;;31.89;51.91;101363.72;4945577;28;20038;-80
2023/07/18 08:16:38;;;;;;;30.70;16.40;;;;;;;31.82;51.78;101349.34;4925281;28;20064;-78
2023/07/18 08:19:08;;;;;;;39.45;20.48;;;;;;;31.93;51.85;101342.88;4969317;28;20516;-78
2023/07/18 08:21:35;;;;;;;34.78;20.08;;;;;;;32.06;51.72;101347.94;4983272;28;20500;-79
2023/07/18 08:24:02;;;;;;;37.17;19.83;;;;;;;32.01;52.33;101361.66;4942397;28;20553;-79
2023/07/18 08:26:29;;;;;;;32.90;17.70;;;;;;;32.04;52.04;101363.88;4966919;28;20283;-78
2023/07/18 08:29:05;;;;;;;27.85;15.57;;;;;;;32.10;51.41;101359.25;4982292;28;20056;-79
2023/07/18 08:31:33;;;;;;;34.65;20.98;;;;;;;32.29;52.07;101366.00;4920751;28;20411;-80
2023/07/18 08:34:00;;;;;;;34.97;19.55;;;;;;;32.07;51.73;101346.88;4935461;28;20043;-79
2023/07/18 08:36:27;;;;;;;36.00;19.35;;;;;;;32.03;52.44;101340.25;4939196;28;20051;-78
2023/07/18 08:38:54;;;;;;;38.60;19.48;;;;;;;31.96;52.52;101328.66;4948155;28;20050;-78
2023/07/18 08:41:26;;;;;;;29.08;19.00;;;;;;;32.38;51.64;101358.06;4924957;28;20532;-80
2023/07/18 08:43:59;;;;;;;33.83;18.77;;;;;;;32.33;51.64;101377.28;4965902;28;20061;-79
2023/07/18 08:46:30;;;;;;;35.33;21.58;;;;;;;32.15;52.37;101332.66;4970550;28;20331;-79
2023/07/18 08:48:57;;;;;;;45.10;25.02;;;;;;;32.65;51.36;101371.78;4955349;28;20472;-80
2023/07/18 08:51:30;;;;;;;35.22;21.20;;;;;;;32.22;51.60;101310.47;4944384;28;20073;-80
2023/07/18 08:53:58;;;;;;;37.63;22.05;;;;;;;32.58;51.93;101351.94;4950606;28;20506;-80
2023/07/18 08:56:25;;;;;;;35.17;19.02;;;;;;;32.29;51.35;101326.72;4963781;28;20077;-78
2023/07/18 08:58:53;;;;;;;43.45;21.48;;;;;;;32.41;52.03;101346.56;4918283;28;20568;-79
2023/07/18 09:01:21;;;;;;;32.50;17.58;;;;;;;32.35;51.60;101336.63;4867321;28;2542023;-81
2023/07/18 09:03:49;;;;;;;46.47;21.80;;;;;;;32.38;51.89;101332.53;4939131;28;20057;-80
2023/07/18 09:06:18;;;;;;;36.25;22.45;;;;;;;32.63;51.86;101364.88;4966581;28;20480;-80
2023/07/18 09:08:48;;;;;;;30.70;19.70;;;;;;;32.52;51.18;101334.56;4978728;28;20120;-79
2023/07/18 09:11:20;;;;;;;40.85;19.77;;;;;;;32.69;50.91;101363.81;4937679;28;20455;-79
2023/07/18 09:13:52;;;;;;;29.98;16.80;;;;;;;32.69;50.55;101359.13;4959221;28;20104;-80
2023/07/18 09:16:22;;;;;;;43.20;22.33;;;;;;;32.43;51.51;101300.44;4947816;28;20306;-80
2023/07/18 09:18:49;;;;;;;42.95;24.85;;;;;;;32.76;51.43;101351.47;4969488;28;20100;-80
2023/07/18 09:21:17;;;;;;;39.15;21.58;;;;;;;32.77;51.15;101344.06;4979870;28;20296;-79
2023/07/18 09:23:51;;;;;;;46.58;27.10;;;;;;;32.91;51.07;101350.72;4946981;28;20559;-81
2023/07/18 09:26:21;;;;;;;34.67;21.23;;;;;;;32.62;51.71;101319.25;4972878;28;20057;-79
2023/07/18 09:28:49;;;;;;;46.58;25.33;;;;;;;32.93;51.48;101359.53;4959670;28;20053;-79
2023/07/18 09:31:23;;;;;;;33.38;19.02;;;;;;;32.92;50.19;101333.13;4952124;28;20061;-79
2023/07/18 09:33:52;;;;;;;39.55;22.92;;;;;;;32.95;50.83;101356.53;4983105;28;20050;-79
2023/07/18 09:36:25;;;;;;;32.22;21.10;;;;;;;32.97;51.42;101349.66;4970426;28;20587;-79
2023/07/18 09:38:53;;;;;;;39.67;22.25;;;;;;;33.02;51.03;101361.78;4970918;28;20092;-80
2023/07/18 09:41:21;;;;;;;41.03;23.58;;;;;;;33.17;50.50;101353.59;4950122;28;20415;-79
2023/07/18 09:43:52;;;;;;;33.72;20.38;;;;;;;33.12;49.85;101339.84;4927640;28;20512;-79
2023/07/18 09:46:40;;;;;;;44.88;23.20;;;;;;;33.10;51.38;101329.09;4955632;28;20519;-79
2023/07/18 09:49:07;;;;;;;24.20;17.55;;;;;;;33.51;48.69;101342.16;4955603;28;20263;-79
2023/07/18 09:51:49;;;;;;;39.60;24.08;;;;;;;33.17;49.92;101299.41;4955964;28;20187;-79
2023/07/18 09:54:22;;;;;;;30.92;21.33;;;;;;;33.35;50.13;101335.75;4942062;28;20465;-79
2023/07/18 09:56:56;;;;;;;28.65;18.85;;;;;;;33.55;48.75;101324.81;4940427;28;20313;-80
2023/07/18 09:59:27;;;;;;;32.63;17.67;;;;;;;33.41;48.67;101324.50;4959475;28;20057;-80
2023/07/18 10:01:58;;;;;;;32.30;20.15;;;;;;;33.54;49.02;101336.91;4962301;28;20066;-79
2023/07/18 10:04:29;;;;;;;35.60;21.77;;;;;;;33.39;48.99;101318.44;4961616;28;20160;-79
2023/07/18 10:06:56;;;;;;;28.42;18.70;;;;;;;33.42;48.89;101301.41;4949095;28;20671;-79
2023/07/18 10:09:27;;;;;;;31.08;17.65;;;;;;;33.45;47.96;101272.50;4948059;28;20105;-80
2023/07/18 10:11:57;;;;;;;28.30;17.33;;;;;;;33.69;47.19;101302.28;4956722;28;20058;-79
2023/07/18 10:14:30;;;;;;;29.23;17.35;;;;;;;33.61;46.35;101270.63;4983797;28;20929;-79
2023/07/18 10:17:05;;;;;;;30.83;19.27;;;;;;;33.17;48.66;101276.59;4966542;28;20053;-79
2023/07/18 10:19:47;;;;;;;25.70;15.80;;;;;;;33.49;46.90;101303.88;4964809;28;20451;-80
2023/07/18 10:22:32;;;;;;;31.05;20.85;;;;;;;33.30;48.86;101314.56;4940651;28;20497;-79
2023/07/18 10:25:08;;;;;;;27.13;17.10;;;;;;;33.08;47.75;101225.94;4947394;28;20054;-80
2023/07/18 10:27:37;;;;;;;21.98;17.73;;;;;;;33.66;47.85;101311.91;4982796;28;20509;-80
2023/07/18 10:30:10;;;;;;;48.08;20.38;;;;;;;33.77;47.86;101290.72;4960451;28;20050;-80
2023/07/18 10:32:42;;;;;;;34.72;22.25;;;;;;;33.84;47.47;101292.09;4957193;28;20050;-79
2023/07/18 10:35:14;;;;;;;34.47;16.42;;;;;;;33.77;47.01;101269.53;4971867;28;20196;-79
2023/07/18 10:37:44;;;;;;;;;;;;;;;34.01;47.45;101299.25;4989903;28;20346;-80
2023/07/18 10:40:34;;;;;;;29.13;17.17;;;;;;;33.82;46.86;101294.28;4962991;28;19925;-78
2023/07/18 10:43:03;;;;;;;28.05;18.42;;;;;;;33.74;47.10;101256.31;4941868;28;20047;-79
2023/07/18 10:45:48;;;;;;;28.08;17.42;;;;;;;34.35;45.38;101273.84;4934925;28;20042;-78
2023/07/18 10:48:20;;;;;;;28.42;17.08;;;;;;;34.39;45.42;101277.69;4963670;28;20053;-79
2023/07/18 10:50:48;;;;;;;25.75;17.33;;;;;;;34.28;44.77;101256.81;4959198;28;20525;-79
2023/07/18 10:53:20;;;;;;;33.83;18.65;;;;;;;33.91;45.95;101264.28;4950985;28;20137;-78
2023/07/18 10:55:48;;;;;;;28.83;17.55;;;;;;;33.90;46.16;101226.00;4956350;28;20042;-78
2023/07/18 10:58:23;;;;;;;22.10;17.83;;;;;;;34.25;45.98;101266.44;4972375;28;20101;-78
2023/07/18 11:00:50;;;;;;;28.88;16.92;;;;;;;34.18;45.44;101224.59;4960962;28;20352;-79
2023/07/18 11:03:22;;;;;;;22.98;16.75;;;;;;;34.78;44.21;101254.97;4947389;28;20522;-79
2023/07/18 11:05:50;;;;;;;33.40;17.92;;;;;;;33.99;45.13;101181.09;4962100;28;20058;-78
2023/07/18 11:08:25;;;;;;;39.20;20.05;;;;;;;34.24;45.89;101251.84;4958616;28;20081;-78
2023/07/18 11:10:59;;;;;;;31.60;19.05;;;;;;;34.36;45.70;101242.44;4969814;28;20046;-78
2023/07/18 11:13:36;;;;;;;31.65;18.88;;;;;;;34.61;45.00;101228.56;4958478;28;20518;-78
2023/07/18 11:16:14;;;;;;;33.13;20.25;;;;;;;34.98;44.35;101234.72;4964417;28;20044;-79
2023/07/18 11:18:45;;;;;;;36.20;21.33;;;;;;;35.53;42.77;101232.69;4940551;28;20055;-79
2023/07/18 11:21:16;;;;;;;26.13;17.73;;;;;;;35.45;42.58;101198.25;4918797;28;20377;-79
2023/07/18 11:23:46;;;;;;;31.38;19.27;;;;;;;34.80;42.74;101090.06;4947668;28;20346;-79
2023/07/18 11:26:22;;;;;;;26.92;18.33;;;;;;;35.62;42.54;101189.59;4936964;28;20108;-79